createdAt,value
2022-09-27T00:22:41.875Z,0.80
2022-09-27T00:25:11.832Z,0.57
2022-09-27T00:27:41.862Z,0.55
2022-09-27T00:30:12.574Z,0.60
2022-09-27T00:32:43.126Z,0.93
2022-09-27T00:35:12.987Z,2.55
2022-09-27T00:37:43.036Z,1.48
2022-09-27T00:40:17.349Z,1.10
2022-09-27T00:42:49.941Z,0.82
2022-09-27T00:45:19.934Z,1.05
2022-09-27T00:47:53.558Z,1.40
2022-09-27T00:50:29.402Z,1.38
2022-09-27T00:53:06.738Z,0.82
2022-09-27T00:55:40.853Z,1.23
2022-09-27T00:58:10.883Z,1.65
2022-09-27T01:00:41.774Z,1.20
2022-09-27T01:03:13.404Z,1.80
2022-09-27T01:05:43.766Z,2.95
2022-09-27T01:08:14.808Z,1.27
2022-09-27T01:10:54.111Z,1.20
2022-09-27T01:13:29.070Z,1.50
2022-09-27T01:16:09.609Z,1.98
2022-09-27T01:18:42.918Z,1.30
2022-09-27T03:50:50.821Z,1.23
2022-09-27T03:53:20.670Z,1.25
2022-09-27T03:55:50.697Z,1.90
2022-09-27T03:58:20.748Z,1.75
2022-09-27T04:00:51.408Z,1.70
2022-09-27T04:03:21.447Z,1.05
2022-09-27T04:05:51.467Z,1.05
2022-09-27T04:08:21.629Z,1.00
2022-09-27T04:10:51.941Z,1.50
2022-09-27T04:13:22.761Z,1.45
2022-09-27T04:15:52.727Z,1.45
2022-09-27T04:18:22.854Z,2.03
2022-09-27T04:21:17.960Z,2.92
2022-09-27T04:23:48.772Z,1.25
2022-09-27T04:26:26.062Z,1.48
2022-09-27T04:28:56.306Z,2.08
2022-09-27T04:31:26.480Z,2.08
2022-09-27T04:33:56.813Z,1.67
2022-09-27T04:36:29.896Z,1.20
2022-09-27T04:39:08.038Z,2.88
2022-09-27T04:41:47.149Z,1.83
2022-09-27T04:44:47.915Z,1.73
2022-09-27T05:35:09.212Z,5.18
2022-09-27T05:37:42.976Z,1.48
2022-09-27T05:40:42.027Z,3.65
2022-09-27T05:43:16.146Z,0.70
2022-09-27T05:45:46.495Z,2.67
2022-09-27T05:48:25.548Z,2.38
2022-09-27T05:50:56.082Z,0.80
2022-09-27T05:57:02.860Z,0.60
2022-09-27T06:00:57.137Z,0.85
2022-09-27T06:07:10.453Z,0.70
2022-09-27T06:09:49.821Z,0.95
2022-09-27T06:12:52.210Z,1.90
2022-09-27T06:15:13.013Z,2.72
2022-09-27T06:17:52.523Z,1.30
2022-09-27T06:20:25.973Z,0.90
2022-09-27T06:23:05.092Z,2.88
2022-09-27T06:25:37.018Z,1.80
2022-09-27T06:28:38.063Z,0.70
2022-09-27T06:31:13.870Z,2.35
2022-09-27T06:33:55.263Z,3.05
2022-09-27T08:46:01.121Z,0.88
2022-09-27T08:48:32.244Z,1.55
2022-09-27T08:51:06.073Z,1.58
2022-09-27T08:53:39.043Z,1.15
2022-09-27T08:56:11.323Z,1.30
2022-09-27T08:58:48.527Z,1.92
2022-09-27T09:01:19.806Z,2.40
2022-09-27T09:03:53.588Z,1.85
2022-09-27T09:06:23.596Z,1.40
2022-09-27T09:09:11.701Z,1.38
2022-09-27T09:12:09.810Z,1.50
2022-09-27T09:14:59.668Z,2.25
2022-09-27T09:17:36.805Z,2.78
2022-09-27T09:20:23.399Z,1.60
2022-09-27T09:22:53.270Z,1.13
2022-09-27T09:25:27.274Z,1.90
2022-09-27T09:28:03.593Z,2.53
2022-09-27T09:30:36.577Z,1.30
2022-09-27T09:33:19.135Z,2.60
2022-09-27T09:35:52.998Z,2.42
2022-09-27T09:38:27.423Z,2.20
2022-09-27T09:41:19.642Z,2.60
2022-09-27T09:44:01.602Z,2.58
2022-09-27T09:46:31.841Z,3.20
2022-09-27T09:49:06.151Z,2.53
2022-09-27T09:51:47.464Z,2.75
2022-09-27T09:54:29.681Z,3.63
2022-09-27T09:57:07.046Z,3.25
2022-09-27T09:59:49.084Z,2.15
2022-09-27T10:02:22.256Z,3.67
2022-09-27T10:04:52.252Z,3.88
2022-09-27T10:07:27.709Z,2.30
2022-09-27T10:10:00.690Z,2.55
2022-09-27T10:12:31.204Z,3.53
2022-09-27T10:15:03.744Z,4.15
2022-09-27T10:17:38.993Z,6.32
2022-09-27T10:20:16.923Z,5.70
2022-09-27T10:22:50.730Z,4.28
2022-09-27T10:25:21.729Z,5.53
2022-09-27T10:27:57.189Z,5.68
2022-09-27T10:33:00.904Z,5.25
2022-09-27T10:35:33.637Z,4.82
2022-09-27T10:38:25.077Z,9.07
2022-09-27T11:00:40.786Z,3.80
2022-09-27T11:03:20.883Z,1.85
2022-09-27T11:05:51.245Z,3.83
2022-09-27T11:08:38.503Z,1.67
2022-09-27T11:11:11.564Z,1.60
2022-09-27T11:13:43.211Z,2.35
2022-09-27T11:16:31.150Z,2.28
2022-09-27T11:19:19.692Z,2.33
2022-09-27T11:21:58.385Z,1.75
2022-09-27T11:24:42.020Z,2.25
2022-09-27T11:27:23.014Z,1.08
2022-09-27T11:30:11.906Z,2.15
2022-09-27T11:32:54.042Z,2.65
2022-09-27T11:35:31.057Z,2.88
2022-09-27T11:38:01.704Z,2.80
2022-09-27T11:40:49.679Z,2.85
2022-09-27T11:43:35.410Z,3.53
2022-09-27T11:46:17.840Z,3.77
2022-09-27T11:49:05.458Z,5.88
2022-09-27T11:51:41.210Z,7.45
2022-09-27T11:54:34.623Z,5.72
2022-09-27T11:57:23.642Z,8.25
2022-09-27T17:01:24.529Z,2.10
2022-09-27T17:03:57.531Z,2.22
2022-09-27T17:06:27.769Z,2.15
2022-09-27T17:08:57.880Z,2.03
2022-09-27T17:11:28.244Z,3.03
2022-09-27T17:13:58.150Z,2.20
2022-09-27T17:16:29.774Z,2.45
2022-09-27T17:18:59.658Z,1.95
2022-09-27T17:21:30.920Z,2.42
2022-09-27T17:24:03.436Z,2.55
2022-09-27T17:26:33.628Z,1.77
2022-09-27T17:29:04.142Z,3.08
2022-09-27T17:31:36.232Z,1.95
2022-09-27T17:34:06.183Z,1.55
2022-09-27T17:36:39.129Z,3.20
2022-09-27T17:39:08.958Z,1.65
2022-09-27T17:41:41.127Z,1.88
2022-09-27T17:44:15.138Z,1.70
2022-09-27T17:46:45.963Z,2.85
2022-09-27T17:49:34.946Z,2.30
2022-09-27T17:52:04.918Z,3.28
2022-09-27T17:54:34.746Z,1.60
2022-09-27T17:57:04.588Z,2.25
2022-09-27T22:05:24.241Z,1.10
2022-09-27T22:07:54.068Z,0.70
2022-09-27T22:10:23.944Z,1.20
2022-09-27T22:12:53.771Z,1.08
2022-09-27T22:15:23.706Z,1.10
2022-09-27T22:17:54.664Z,0.77
2022-09-27T22:20:24.519Z,0.60
2022-09-27T22:22:54.554Z,1.75
2022-09-27T22:25:24.630Z,0.73
2022-09-27T22:27:54.522Z,0.88
2022-09-27T22:30:24.355Z,0.30
2022-09-27T22:32:55.329Z,2.42
2022-09-27T22:35:25.237Z,0.75
2022-09-27T22:37:55.132Z,1.52
2022-09-27T22:40:25.004Z,2.30
2022-09-27T22:42:56.859Z,1.25
2022-09-27T22:45:27.907Z,3.10
2022-09-27T22:47:58.014Z,1.77
2022-09-27T22:50:29.147Z,0.77
2022-09-27T22:53:00.243Z,0.80
2022-09-27T22:55:30.228Z,1.10
2022-09-27T22:58:00.211Z,1.45
2022-09-27T23:00:30.162Z,0.90
2022-09-27T23:03:00.428Z,2.58
